SAZM/MDD METAR and TAF weather

Enter ICAO airport designator
Station Type Date Time Source
SAZM METAR 2022/01/25 04:00 UTC NOAA

SAZM 250400Z 14008KT 9999 BKN029 22/21 Q1011 RMK PP///


Station Type Date Time Source
SAZM Decoded METAR 2022/01/25 04:00 UTC NOAA

Mar Del Plata Aerodrome, Argentina (SAZM) 37-56S 057-35W 21M
Jan 24, 2022 - 11:00 PM EST / 2022.01.25 0400 UTC
Wind: from the SE (140 degrees) at 9 MPH (8 KT):0
Visibility: greater than 7 mile(s):0
Sky conditions: mostly cloudy
Temperature: 71 F (22 C)
Dew Point: 69 F (21 C)
Relative Humidity: 94%
Pressure (altimeter): 29.85 in. Hg (1011 hPa)
ob: SAZM 250400Z 14008KT 9999 BKN029 22/21 Q1011 RMK PP///
cycle: 4

Station Type Date Time Source
SAZM TAF 2022/01/24 18:24 UTC NOAA

TAF SAZM 241700Z 2418/2518 30010KT 9999 SCT045 TX31/2418Z TN17/2509Z
BECMG 2419/2420 14010KT CAVOK
BECMG 2500/2502 07005KT 7000 SCT010 PROB40
TEMPO 2505/2509 0900 BCFG BKN008
BECMG 2510/2511 05015KT 9999 SCT030

Example: see airport list